sensor_id;sensor_type;location;lat;lon;timestamp;temperature;humidity
12568;DHT22;6349;50.904;6.136;2023-03-25T00:00:15;9.20;99.90
12568;DHT22;6349;50.904;6.136;2023-03-25T00:02:22;9.20;99.90
12568;DHT22;6349;50.904;6.136;2023-03-25T00:04:24;9.10;99.90
12568;DHT22;6349;50.904;6.136;2023-03-25T00:06:27;9.20;99.90
12568;DHT22;6349;50.904;6.136;2023-03-25T00:08:29;9.10;99.90
12568;DHT22;6349;50.904;6.136;2023-03-25T00:10:31;9.10;99.90
12568;DHT22;6349;50.904;6.136;2023-03-25T00:12:33;9.10;99.90
12568;DHT22;6349;50.904;6.136;2023-03-25T00:14:35;9.10;99.90
12568;DHT22;6349;50.904;6.136;2023-03-25T00:16:37;9.10;99.90
12568;DHT22;6349;50.904;6.136;2023-03-25T00:18:38;9.10;99.90
12568;DHT22;6349;50.904;6.136;2023-03-25T00:20:40;9.10;99.90
12568;DHT22;6349;50.904;6.136;2023-03-25T00:22:42;9.10;99.90
12568;DHT22;6349;50.904;6.136;2023-03-25T00:24:45;9.00;99.90
12568;DHT22;6349;50.904;6.136;2023-03-25T00:26:47;9.00;99.90
12568;DHT22;6349;50.904;6.136;2023-03-25T00:28:49;9.00;99.90
12568;DHT22;6349;50.904;6.136;2023-03-25T00:30:51;9.00;99.90
12568;DHT22;6349;50.904;6.136;2023-03-25T00:32:54;9.00;99.90
12568;DHT22;6349;50.904;6.136;2023-03-25T00:34:58;9.00;99.90
12568;DHT22;6349;50.904;6.136;2023-03-25T00:37:01;9.00;99.90
12568;DHT22;6349;50.904;6.136;2023-03-25T00:39:06;9.00;99.90
12568;DHT22;6349;50.904;6.136;2023-03-25T00:41:13;8.90;99.90
12568;DHT22;6349;50.904;6.136;2023-03-25T00:43:18;8.90;99.90
12568;DHT22;6349;50.904;6.136;2023-03-25T00:45:19;8.90;99.90
12568;DHT22;6349;50.904;6.136;2023-03-25T00:47:21;8.90;99.90
12568;DHT22;6349;50.904;6.136;2023-03-25T00:49:23;8.90;99.90
12568;DHT22;6349;50.904;6.136;2023-03-25T00:51:27;8.80;99.90
12568;DHT22;6349;50.904;6.136;2023-03-25T00:53:32;8.90;99.90
12568;DHT22;6349;50.904;6.136;2023-03-25T00:55:34;8.90;99.90
12568;DHT22;6349;50.904;6.136;2023-03-25T00:57:36;8.90;99.90
12568;DHT22;6349;50.904;6.136;2023-03-25T00:59:38;8.80;99.90
12568;DHT22;6349;50.904;6.136;2023-03-25T01:01:40;8.90;99.90
12568;DHT22;6349;50.904;6.136;2023-03-25T01:03:41;8.80;99.90
12568;DHT22;6349;50.904;6.136;2023-03-25T01:05:45;8.90;99.90
12568;DHT22;6349;50.904;6.136;2023-03-25T01:07:47;8.90;99.90
12568;DHT22;6349;50.904;6.136;2023-03-25T01:09:50;8.80;99.90
12568;DHT22;6349;50.904;6.136;2023-03-25T01:11:52;8.90;99.90
12568;DHT22;6349;50.904;6.136;2023-03-25T01:13:56;8.90;99.90
12568;DHT22;6349;50.904;6.136;2023-03-25T01:15:58;8.90;99.90
12568;DHT22;6349;50.904;6.136;2023-03-25T01:17:58;8.80;99.90
12568;DHT22;6349;50.904;6.136;2023-03-25T01:20:00;8.80;99.90
12568;DHT22;6349;50.904;6.136;2023-03-25T01:22:02;8.80;99.90
12568;DHT22;6349;50.904;6.136;2023-03-25T01:24:03;8.80;99.90
12568;DHT22;6349;50.904;6.136;2023-03-25T01:26:06;8.70;99.90
12568;DHT22;6349;50.904;6.136;2023-03-25T01:28:09;8.70;99.90
12568;DHT22;6349;50.904;6.136;2023-03-25T01:30:12;8.70;99.90
12568;DHT22;6349;50.904;6.136;2023-03-25T01:32:14;8.70;99.90
12568;DHT22;6349;50.904;6.136;2023-03-25T01:34:16;8.70;99.90
12568;DHT22;6349;50.904;6.136;2023-03-25T01:36:18;8.70;99.90
12568;DHT22;6349;50.904;6.136;2023-03-25T01:38:21;8.60;99.90
12568;DHT22;6349;50.904;6.136;2023-03-25T01:40:24;8.60;99.90
12568;DHT22;6349;50.904;6.136;2023-03-25T01:42:25;8.60;99.90
12568;DHT22;6349;50.904;6.136;2023-03-25T01:46:31;8.70;99.90
12568;DHT22;6349;50.904;6.136;2023-03-25T01:48:37;8.70;99.90
12568;DHT22;6349;50.904;6.136;2023-03-25T01:50:44;8.70;99.90
12568;DHT22;6349;50.904;6.136;2023-03-25T01:52:50;8.60;99.90
12568;DHT22;6349;50.904;6.136;2023-03-25T01:54:54;8.70;99.90
12568;DHT22;6349;50.904;6.136;2023-03-25T01:56:56;8.70;99.90
12568;DHT22;6349;50.904;6.136;2023-03-25T01:59:00;8.60;99.90
12568;DHT22;6349;50.904;6.136;2023-03-25T02:01:03;8.60;99.90
12568;DHT22;6349;50.904;6.136;2023-03-25T02:03:06;8.60;99.90
12568;DHT22;6349;50.904;6.136;2023-03-25T02:05:19;8.60;99.90
12568;DHT22;6349;50.904;6.136;2023-03-25T02:07:22;8.60;99.90
12568;DHT22;6349;50.904;6.136;2023-03-25T02:09:24;8.60;99.90
12568;DHT22;6349;50.904;6.136;2023-03-25T02:11:27;8.60;99.90
12568;DHT22;6349;50.904;6.136;2023-03-25T02:13:30;8.60;99.90
12568;DHT22;6349;50.904;6.136;2023-03-25T02:15:45;8.60;99.90
12568;DHT22;6349;50.904;6.136;2023-03-25T02:18:24;8.60;99.90
12568;DHT22;6349;50.904;6.136;2023-03-25T02:20:48;8.60;99.90
12568;DHT22;6349;50.904;6.136;2023-03-25T02:39:18;8.60;99.90
12568;DHT22;6349;50.904;6.136;2023-03-25T02:41:29;8.60;99.90
12568;DHT22;6349;50.904;6.136;2023-03-25T02:43:40;8.60;99.90
12568;DHT22;6349;50.904;6.136;2023-03-25T02:45:51;8.60;99.90
12568;DHT22;6349;50.904;6.136;2023-03-25T02:48:00;8.60;99.90
12568;DHT22;6349;50.904;6.136;2023-03-25T02:50:24;8.60;99.90
12568;DHT22;6349;50.904;6.136;2023-03-25T02:52:40;8.60;99.90
12568;DHT22;6349;50.904;6.136;2023-03-25T02:54:44;8.60;99.90
12568;DHT22;6349;50.904;6.136;2023-03-25T02:56:49;8.60;99.90
12568;DHT22;6349;50.904;6.136;2023-03-25T02:58:53;8.60;99.90
12568;DHT22;6349;50.904;6.136;2023-03-25T03:00:57;8.60;99.90
12568;DHT22;6349;50.904;6.136;2023-03-25T03:03:01;8.50;99.90
12568;DHT22;6349;50.904;6.136;2023-03-25T03:05:24;8.50;99.90
12568;DHT22;6349;50.904;6.136;2023-03-25T03:07:32;8.60;99.90
12568;DHT22;6349;50.904;6.136;2023-03-25T03:10:13;8.50;99.90
12568;DHT22;6349;50.904;6.136;2023-03-25T03:15:24;8.50;99.90
12568;DHT22;6349;50.904;6.136;2023-03-25T03:17:43;8.50;99.90
12568;DHT22;6349;50.904;6.136;2023-03-25T03:21:59;8.50;99.90
12568;DHT22;6349;50.904;6.136;2023-03-25T03:24:19;8.50;99.90
12568;DHT22;6349;50.904;6.136;2023-03-25T03:26:57;8.60;99.90
12568;DHT22;6349;50.904;6.136;2023-03-25T03:29:10;8.60;99.90
12568;DHT22;6349;50.904;6.136;2023-03-25T03:33:55;8.60;99.90
12568;DHT22;6349;50.904;6.136;2023-03-25T03:36:12;8.60;99.90
12568;DHT22;6349;50.904;6.136;2023-03-25T03:38:21;8.60;99.90
12568;DHT22;6349;50.904;6.136;2023-03-25T03:40:28;8.60;99.90
12568;DHT22;6349;50.904;6.136;2023-03-25T03:42:41;8.60;99.90
12568;DHT22;6349;50.904;6.136;2023-03-25T03:44:46;8.60;99.90
12568;DHT22;6349;50.904;6.136;2023-03-25T03:47:04;8.60;99.90
12568;DHT22;6349;50.904;6.136;2023-03-25T03:49:10;8.60;99.90
12568;DHT22;6349;50.904;6.136;2023-03-25T03:51:17;8.60;99.90
12568;DHT22;6349;50.904;6.136;2023-03-25T03:53:29;8.60;99.90
12568;DHT22;6349;50.904;6.136;2023-03-25T03:55:40;8.60;99.90
12568;DHT22;6349;50.904;6.136;2023-03-25T03:57:48;8.60;99.90
12568;DHT22;6349;50.904;6.136;2023-03-25T04:00:15;8.60;99.90
12568;DHT22;6349;50.904;6.136;2023-03-25T04:02:29;8.60;99.90
12568;DHT22;6349;50.904;6.136;2023-03-25T04:04:33;8.60;99.90
12568;DHT22;6349;50.904;6.136;2023-03-25T04:06:43;8.60;99.90
12568;DHT22;6349;50.904;6.136;2023-03-25T04:09:29;8.60;99.90
12568;DHT22;6349;50.904;6.136;2023-03-25T04:11:58;8.70;99.90
12568;DHT22;6349;50.904;6.136;2023-03-25T04:14:02;8.70;99.90
12568;DHT22;6349;50.904;6.136;2023-03-25T04:16:05;8.70;99.90
12568;DHT22;6349;50.904;6.136;2023-03-25T04:18:07;8.70;99.90
12568;DHT22;6349;50.904;6.136;2023-03-25T04:20:22;8.70;99.90
12568;DHT22;6349;50.904;6.136;2023-03-25T04:22:25;8.70;99.90
12568;DHT22;6349;50.904;6.136;2023-03-25T04:24:27;8.70;99.90
12568;DHT22;6349;50.904;6.136;2023-03-25T04:26:33;8.70;99.90
12568;DHT22;6349;50.904;6.136;2023-03-25T04:28:38;8.70;99.90
12568;DHT22;6349;50.904;6.136;2023-03-25T04:30:43;8.70;99.90
12568;DHT22;6349;50.904;6.136;2023-03-25T04:32:49;8.70;99.90
12568;DHT22;6349;50.904;6.136;2023-03-25T04:34:55;8.70;99.90
12568;DHT22;6349;50.904;6.136;2023-03-25T04:36:58;8.70;99.90
12568;DHT22;6349;50.904;6.136;2023-03-25T04:39:00;8.70;99.90
12568;DHT22;6349;50.904;6.136;2023-03-25T04:41:01;8.70;99.90
12568;DHT22;6349;50.904;6.136;2023-03-25T04:43:07;8.80;99.90
12568;DHT22;6349;50.904;6.136;2023-03-25T04:45:09;8.70;99.90
12568;DHT22;6349;50.904;6.136;2023-03-25T04:47:22;8.70;99.90
12568;DHT22;6349;50.904;6.136;2023-03-25T04:49:24;8.70;99.90
12568;DHT22;6349;50.904;6.136;2023-03-25T04:51:26;8.70;99.90
12568;DHT22;6349;50.904;6.136;2023-03-25T04:53:28;8.70;99.90
12568;DHT22;6349;50.904;6.136;2023-03-25T04:55:30;8.70;99.90
12568;DHT22;6349;50.904;6.136;2023-03-25T04:57:35;8.70;99.90
12568;DHT22;6349;50.904;6.136;2023-03-25T04:59:37;8.70;99.90
12568;DHT22;6349;50.904;6.136;2023-03-25T05:01:39;8.70;99.90
12568;DHT22;6349;50.904;6.136;2023-03-25T05:03:46;8.70;99.90
12568;DHT22;6349;50.904;6.136;2023-03-25T05:05:51;8.70;99.90
12568;DHT22;6349;50.904;6.136;2023-03-25T05:07:54;8.70;99.90
12568;DHT22;6349;50.904;6.136;2023-03-25T05:09:58;8.70;99.90
12568;DHT22;6349;50.904;6.136;2023-03-25T05:12:01;8.70;99.90
12568;DHT22;6349;50.904;6.136;2023-03-25T05:14:02;8.70;99.90
12568;DHT22;6349;50.904;6.136;2023-03-25T05:16:04;8.70;99.90
12568;DHT22;6349;50.904;6.136;2023-03-25T05:18:11;8.70;99.90
12568;DHT22;6349;50.904;6.136;2023-03-25T05:20:15;8.70;99.90
12568;DHT22;6349;50.904;6.136;2023-03-25T05:22:17;8.70;99.90
12568;DHT22;6349;50.904;6.136;2023-03-25T05:24:18;8.70;99.90
12568;DHT22;6349;50.904;6.136;2023-03-25T05:26:24;8.70;99.90
12568;DHT22;6349;50.904;6.136;2023-03-25T05:28:26;8.70;99.90
12568;DHT22;6349;50.904;6.136;2023-03-25T05:30:27;8.70;99.90
12568;DHT22;6349;50.904;6.136;2023-03-25T05:32:33;8.70;99.90
12568;DHT22;6349;50.904;6.136;2023-03-25T05:34:34;8.70;99.90
12568;DHT22;6349;50.904;6.136;2023-03-25T05:36:36;8.70;99.90
12568;DHT22;6349;50.904;6.136;2023-03-25T05:38:39;8.70;99.90
12568;DHT22;6349;50.904;6.136;2023-03-25T05:40:42;8.70;99.90
12568;DHT22;6349;50.904;6.136;2023-03-25T05:42:45;8.70;99.90
12568;DHT22;6349;50.904;6.136;2023-03-25T05:44:52;8.60;99.90
12568;DHT22;6349;50.904;6.136;2023-03-25T05:46:54;8.60;99.90
12568;DHT22;6349;50.904;6.136;2023-03-25T05:48:56;8.60;99.90
12568;DHT22;6349;50.904;6.136;2023-03-25T05:51:11;8.50;99.90
12568;DHT22;6349;50.904;6.136;2023-03-25T05:53:19;8.50;99.90
12568;DHT22;6349;50.904;6.136;2023-03-25T05:55:21;8.50;99.90
12568;DHT22;6349;50.904;6.136;2023-03-25T05:57:22;8.60;99.90
12568;DHT22;6349;50.904;6.136;2023-03-25T05:59:24;8.50;99.90
12568;DHT22;6349;50.904;6.136;2023-03-25T06:01:26;8.50;99.90
12568;DHT22;6349;50.904;6.136;2023-03-25T06:03:28;8.50;99.90
12568;DHT22;6349;50.904;6.136;2023-03-25T06:05:30;8.50;99.90
12568;DHT22;6349;50.904;6.136;2023-03-25T06:07:35;8.50;99.90
12568;DHT22;6349;50.904;6.136;2023-03-25T06:09:42;8.60;99.90
12568;DHT22;6349;50.904;6.136;2023-03-25T06:11:47;8.60;99.90
12568;DHT22;6349;50.904;6.136;2023-03-25T06:13:53;8.60;99.90
12568;DHT22;6349;50.904;6.136;2023-03-25T06:15:55;8.60;99.90
12568;DHT22;6349;50.904;6.136;2023-03-25T06:17:59;8.60;99.90
12568;DHT22;6349;50.904;6.136;2023-03-25T06:20:01;8.60;99.90
12568;DHT22;6349;50.904;6.136;2023-03-25T06:22:09;8.60;99.90
12568;DHT22;6349;50.904;6.136;2023-03-25T06:24:12;8.60;99.90
12568;DHT22;6349;50.904;6.136;2023-03-25T06:26:17;8.50;99.90
12568;DHT22;6349;50.904;6.136;2023-03-25T06:28:21;8.50;99.90
12568;DHT22;6349;50.904;6.136;2023-03-25T06:30:24;8.50;99.90
12568;DHT22;6349;50.904;6.136;2023-03-25T06:32:26;8.50;99.90
12568;DHT22;6349;50.904;6.136;2023-03-25T06:34:28;8.40;99.90
12568;DHT22;6349;50.904;6.136;2023-03-25T06:36:31;8.40;99.90
12568;DHT22;6349;50.904;6.136;2023-03-25T06:38:35;8.40;99.90
12568;DHT22;6349;50.904;6.136;2023-03-25T06:40:37;8.40;99.90
12568;DHT22;6349;50.904;6.136;2023-03-25T06:42:39;8.50;99.90
12568;DHT22;6349;50.904;6.136;2023-03-25T06:44:43;8.50;99.90
12568;DHT22;6349;50.904;6.136;2023-03-25T06:46:45;8.50;99.90
12568;DHT22;6349;50.904;6.136;2023-03-25T06:48:47;8.50;99.90
12568;DHT22;6349;50.904;6.136;2023-03-25T06:50:49;8.60;99.90
12568;DHT22;6349;50.904;6.136;2023-03-25T06:52:51;8.60;99.90
12568;DHT22;6349;50.904;6.136;2023-03-25T06:54:53;8.60;99.90
12568;DHT22;6349;50.904;6.136;2023-03-25T06:56:55;8.70;99.90
12568;DHT22;6349;50.904;6.136;2023-03-25T06:58:57;8.70;99.90
12568;DHT22;6349;50.904;6.136;2023-03-25T07:00:59;8.70;99.90
12568;DHT22;6349;50.904;6.136;2023-03-25T07:03:04;8.70;99.90
12568;DHT22;6349;50.904;6.136;2023-03-25T07:05:06;8.70;99.90
12568;DHT22;6349;50.904;6.136;2023-03-25T07:07:11;8.70;99.90
12568;DHT22;6349;50.904;6.136;2023-03-25T07:09:14;8.70;99.90
12568;DHT22;6349;50.904;6.136;2023-03-25T07:11:24;8.70;99.90
12568;DHT22;6349;50.904;6.136;2023-03-25T07:13:27;8.80;99.90
12568;DHT22;6349;50.904;6.136;2023-03-25T07:15:29;8.80;99.90
12568;DHT22;6349;50.904;6.136;2023-03-25T07:17:32;8.70;99.90
12568;DHT22;6349;50.904;6.136;2023-03-25T07:19:36;8.70;99.90
12568;DHT22;6349;50.904;6.136;2023-03-25T07:21:42;8.70;99.90
12568;DHT22;6349;50.904;6.136;2023-03-25T07:23:43;8.70;99.90
12568;DHT22;6349;50.904;6.136;2023-03-25T07:25:45;8.70;99.90
12568;DHT22;6349;50.904;6.136;2023-03-25T07:27:48;8.70;99.90
12568;DHT22;6349;50.904;6.136;2023-03-25T07:29:50;8.70;99.90
12568;DHT22;6349;50.904;6.136;2023-03-25T07:31:51;8.70;99.90
12568;DHT22;6349;50.904;6.136;2023-03-25T07:33:53;8.60;99.90
12568;DHT22;6349;50.904;6.136;2023-03-25T07:35:56;8.60;99.90
12568;DHT22;6349;50.904;6.136;2023-03-25T07:37:58;8.70;99.90
12568;DHT22;6349;50.904;6.136;2023-03-25T07:40:01;8.80;99.90
12568;DHT22;6349;50.904;6.136;2023-03-25T07:42:04;8.70;99.90
12568;DHT22;6349;50.904;6.136;2023-03-25T07:44:07;8.80;99.90
12568;DHT22;6349;50.904;6.136;2023-03-25T07:46:08;8.90;99.90
12568;DHT22;6349;50.904;6.136;2023-03-25T07:48:11;9.00;99.90
12568;DHT22;6349;50.904;6.136;2023-03-25T07:50:18;9.10;99.90
12568;DHT22;6349;50.904;6.136;2023-03-25T07:52:21;9.10;99.90
12568;DHT22;6349;50.904;6.136;2023-03-25T07:54:23;9.20;99.90
12568;DHT22;6349;50.904;6.136;2023-03-25T07:56:27;9.20;99.90
12568;DHT22;6349;50.904;6.136;2023-03-25T07:58:29;9.20;99.90
12568;DHT22;6349;50.904;6.136;2023-03-25T08:00:31;9.30;99.90
12568;DHT22;6349;50.904;6.136;2023-03-25T08:02:34;9.30;99.90
12568;DHT22;6349;50.904;6.136;2023-03-25T08:04:36;9.30;99.90
12568;DHT22;6349;50.904;6.136;2023-03-25T08:06:40;9.30;99.90
12568;DHT22;6349;50.904;6.136;2023-03-25T08:08:46;9.30;99.90
12568;DHT22;6349;50.904;6.136;2023-03-25T08:10:51;9.30;99.90
12568;DHT22;6349;50.904;6.136;2023-03-25T08:12:54;9.40;99.90
12568;DHT22;6349;50.904;6.136;2023-03-25T08:14:57;9.40;99.90
12568;DHT22;6349;50.904;6.136;2023-03-25T08:17:00;9.40;99.90
12568;DHT22;6349;50.904;6.136;2023-03-25T08:19:02;9.50;99.90
12568;DHT22;6349;50.904;6.136;2023-03-25T08:21:04;9.50;99.90
12568;DHT22;6349;50.904;6.136;2023-03-25T08:23:13;9.50;99.90
12568;DHT22;6349;50.904;6.136;2023-03-25T08:25:20;9.50;99.90
12568;DHT22;6349;50.904;6.136;2023-03-25T08:27:22;9.50;99.90
12568;DHT22;6349;50.904;6.136;2023-03-25T08:29:25;9.50;99.90
12568;DHT22;6349;50.904;6.136;2023-03-25T08:31:29;9.50;99.90
12568;DHT22;6349;50.904;6.136;2023-03-25T08:33:32;9.50;99.90
12568;DHT22;6349;50.904;6.136;2023-03-25T08:35:42;9.50;99.90
12568;DHT22;6349;50.904;6.136;2023-03-25T08:37:44;9.40;99.90
12568;DHT22;6349;50.904;6.136;2023-03-25T08:39:46;9.50;99.90
12568;DHT22;6349;50.904;6.136;2023-03-25T08:41:50;9.60;99.90
12568;DHT22;6349;50.904;6.136;2023-03-25T08:43:52;9.50;99.90
12568;DHT22;6349;50.904;6.136;2023-03-25T08:45:54;9.60;99.90
12568;DHT22;6349;50.904;6.136;2023-03-25T08:47:57;9.50;99.90
12568;DHT22;6349;50.904;6.136;2023-03-25T08:49:59;9.60;99.90
12568;DHT22;6349;50.904;6.136;2023-03-25T08:52:01;9.60;99.90
12568;DHT22;6349;50.904;6.136;2023-03-25T08:54:05;9.60;99.90
12568;DHT22;6349;50.904;6.136;2023-03-25T08:56:09;9.70;99.90
12568;DHT22;6349;50.904;6.136;2023-03-25T08:58:11;9.70;99.90
12568;DHT22;6349;50.904;6.136;2023-03-25T09:00:14;9.70;99.90
12568;DHT22;6349;50.904;6.136;2023-03-25T09:02:21;9.80;99.90
12568;DHT22;6349;50.904;6.136;2023-03-25T09:04:23;9.80;99.90
12568;DHT22;6349;50.904;6.136;2023-03-25T09:06:25;9.70;99.90
12568;DHT22;6349;50.904;6.136;2023-03-25T09:08:27;9.70;99.90
12568;DHT22;6349;50.904;6.136;2023-03-25T09:10:29;9.70;99.90
12568;DHT22;6349;50.904;6.136;2023-03-25T09:12:31;9.80;99.90
12568;DHT22;6349;50.904;6.136;2023-03-25T09:14:33;9.80;99.90
12568;DHT22;6349;50.904;6.136;2023-03-25T09:16:36;9.80;99.90
12568;DHT22;6349;50.904;6.136;2023-03-25T09:18:38;9.90;99.90
12568;DHT22;6349;50.904;6.136;2023-03-25T09:20:39;9.90;99.90
12568;DHT22;6349;50.904;6.136;2023-03-25T09:22:42;10.10;99.90
12568;DHT22;6349;50.904;6.136;2023-03-25T09:24:44;10.20;99.90
12568;DHT22;6349;50.904;6.136;2023-03-25T09:26:46;10.20;99.90
12568;DHT22;6349;50.904;6.136;2023-03-25T09:28:48;10.40;99.90
12568;DHT22;6349;50.904;6.136;2023-03-25T09:30:50;10.50;99.90
12568;DHT22;6349;50.904;6.136;2023-03-25T09:32:51;10.60;99.90
12568;DHT22;6349;50.904;6.136;2023-03-25T09:34:57;10.70;99.90
12568;DHT22;6349;50.904;6.136;2023-03-25T09:36:58;10.60;99.90
12568;DHT22;6349;50.904;6.136;2023-03-25T09:39:00;10.50;99.90
12568;DHT22;6349;50.904;6.136;2023-03-25T09:41:15;10.50;99.90
12568;DHT22;6349;50.904;6.136;2023-03-25T09:45:46;10.50;99.90
12568;DHT22;6349;50.904;6.136;2023-03-25T09:47:56;10.50;99.90
12568;DHT22;6349;50.904;6.136;2023-03-25T09:50:04;10.60;99.90
12568;DHT22;6349;50.904;6.136;2023-03-25T09:52:25;10.70;99.90
12568;DHT22;6349;50.904;6.136;2023-03-25T09:54:36;10.70;99.90
12568;DHT22;6349;50.904;6.136;2023-03-25T09:56:45;10.80;99.90
12568;DHT22;6349;50.904;6.136;2023-03-25T09:58:57;10.80;99.90
12568;DHT22;6349;50.904;6.136;2023-03-25T10:06:20;10.90;99.90
12568;DHT22;6349;50.904;6.136;2023-03-25T10:13:53;11.00;99.90
12568;DHT22;6349;50.904;6.136;2023-03-25T10:21:39;11.20;99.90
12568;DHT22;6349;50.904;6.136;2023-03-25T10:26:08;11.10;99.90
12568;DHT22;6349;50.904;6.136;2023-03-25T10:28:26;10.80;99.90
12568;DHT22;6349;50.904;6.136;2023-03-25T10:30:48;10.70;99.90
12568;DHT22;6349;50.904;6.136;2023-03-25T10:32:59;10.60;99.90
12568;DHT22;6349;50.904;6.136;2023-03-25T10:35:04;10.60;99.90
12568;DHT22;6349;50.904;6.136;2023-03-25T10:37:12;10.60;99.90
12568;DHT22;6349;50.904;6.136;2023-03-25T10:39:20;10.60;99.90
12568;DHT22;6349;50.904;6.136;2023-03-25T10:41:38;10.60;99.90
12568;DHT22;6349;50.904;6.136;2023-03-25T10:43:42;10.40;99.90
12568;DHT22;6349;50.904;6.136;2023-03-25T10:57:54;10.40;99.90
12568;DHT22;6349;50.904;6.136;2023-03-25T11:00:14;10.50;99.90
12568;DHT22;6349;50.904;6.136;2023-03-25T11:02:27;10.50;99.90
12568;DHT22;6349;50.904;6.136;2023-03-25T11:04:34;10.40;99.90
12568;DHT22;6349;50.904;6.136;2023-03-25T11:06:43;10.50;99.90
12568;DHT22;6349;50.904;6.136;2023-03-25T11:11:08;10.50;99.90
12568;DHT22;6349;50.904;6.136;2023-03-25T11:13:11;10.60;99.90
12568;DHT22;6349;50.904;6.136;2023-03-25T11:15:20;10.60;99.90
12568;DHT22;6349;50.904;6.136;2023-03-25T11:17:22;10.60;99.90
12568;DHT22;6349;50.904;6.136;2023-03-25T11:19:43;10.50;99.90
12568;DHT22;6349;50.904;6.136;2023-03-25T11:21:53;10.60;99.90
12568;DHT22;6349;50.904;6.136;2023-03-25T11:23:57;10.60;99.90
12568;DHT22;6349;50.904;6.136;2023-03-25T11:26:26;10.60;99.90
12568;DHT22;6349;50.904;6.136;2023-03-25T11:28:41;10.60;99.90
12568;DHT22;6349;50.904;6.136;2023-03-25T11:31:07;10.60;99.90
12568;DHT22;6349;50.904;6.136;2023-03-25T11:33:14;10.80;99.90
12568;DHT22;6349;50.904;6.136;2023-03-25T11:35:22;11.00;99.90
12568;DHT22;6349;50.904;6.136;2023-03-25T11:37:23;11.30;99.90
12568;DHT22;6349;50.904;6.136;2023-03-25T11:39:31;11.40;99.90
12568;DHT22;6349;50.904;6.136;2023-03-25T11:41:34;11.40;99.90
12568;DHT22;6349;50.904;6.136;2023-03-25T11:43:36;11.50;99.90
12568;DHT22;6349;50.904;6.136;2023-03-25T11:45:38;11.80;99.90
12568;DHT22;6349;50.904;6.136;2023-03-25T11:47:39;11.80;99.90
12568;DHT22;6349;50.904;6.136;2023-03-25T11:49:41;11.80;99.90
12568;DHT22;6349;50.904;6.136;2023-03-25T11:51:42;11.90;99.90
12568;DHT22;6349;50.904;6.136;2023-03-25T11:53:49;11.80;99.90
12568;DHT22;6349;50.904;6.136;2023-03-25T11:55:59;11.70;99.90
12568;DHT22;6349;50.904;6.136;2023-03-25T11:58:01;11.60;99.90
12568;DHT22;6349;50.904;6.136;2023-03-25T12:00:25;11.50;99.90
12568;DHT22;6349;50.904;6.136;2023-03-25T12:02:35;11.40;99.90
12568;DHT22;6349;50.904;6.136;2023-03-25T12:04:54;11.30;99.90
12568;DHT22;6349;50.904;6.136;2023-03-25T12:06:58;11.40;99.90
12568;DHT22;6349;50.904;6.136;2023-03-25T12:08:59;11.50;99.90
12568;DHT22;6349;50.904;6.136;2023-03-25T12:11:07;11.50;99.90
12568;DHT22;6349;50.904;6.136;2023-03-25T12:23:03;12.30;99.90
12568;DHT22;6349;50.904;6.136;2023-03-25T12:35:20;12.00;99.90
12568;DHT22;6349;50.904;6.136;2023-03-25T12:38:10;12.00;99.90
12568;DHT22;6349;50.904;6.136;2023-03-25T12:40:24;12.00;99.90
12568;DHT22;6349;50.904;6.136;2023-03-25T12:42:44;12.00;99.90
12568;DHT22;6349;50.904;6.136;2023-03-25T12:47:33;11.90;99.90
12568;DHT22;6349;50.904;6.136;2023-03-25T12:52:39;11.70;99.90
12568;DHT22;6349;50.904;6.136;2023-03-25T13:07:16;11.20;99.90
12568;DHT22;6349;50.904;6.136;2023-03-25T13:09:28;11.10;99.90
12568;DHT22;6349;50.904;6.136;2023-03-25T13:12:15;11.00;99.90
12568;DHT22;6349;50.904;6.136;2023-03-25T13:14:39;10.90;99.90
12568;DHT22;6349;50.904;6.136;2023-03-25T13:16:42;10.80;99.90
12568;DHT22;6349;50.904;6.136;2023-03-25T13:18:53;10.60;99.90
12568;DHT22;6349;50.904;6.136;2023-03-25T13:21:16;10.40;99.90
12568;DHT22;6349;50.904;6.136;2023-03-25T13:23:23;10.30;99.90
12568;DHT22;6349;50.904;6.136;2023-03-25T13:25:54;10.10;99.90
12568;DHT22;6349;50.904;6.136;2023-03-25T13:28:05;10.10;99.90
12568;DHT22;6349;50.904;6.136;2023-03-25T13:30:25;10.10;99.90
12568;DHT22;6349;50.904;6.136;2023-03-25T13:32:53;10.20;99.90
12568;DHT22;6349;50.904;6.136;2023-03-25T13:35:06;10.30;99.90
12568;DHT22;6349;50.904;6.136;2023-03-25T13:39:24;10.20;99.90
12568;DHT22;6349;50.904;6.136;2023-03-25T13:41:47;10.10;99.90
12568;DHT22;6349;50.904;6.136;2023-03-25T13:44:11;10.20;99.90
12568;DHT22;6349;50.904;6.136;2023-03-25T13:46:42;10.30;99.90
12568;DHT22;6349;50.904;6.136;2023-03-25T13:48:52;10.40;99.90
12568;DHT22;6349;50.904;6.136;2023-03-25T13:50:55;10.50;99.90
12568;DHT22;6349;50.904;6.136;2023-03-25T13:55:31;10.60;99.90
12568;DHT22;6349;50.904;6.136;2023-03-25T14:07:33;11.50;99.90
12568;DHT22;6349;50.904;6.136;2023-03-25T14:11:59;11.50;99.90
12568;DHT22;6349;50.904;6.136;2023-03-25T14:14:07;11.40;99.90
12568;DHT22;6349;50.904;6.136;2023-03-25T14:16:14;11.30;99.90
12568;DHT22;6349;50.904;6.136;2023-03-25T14:18:18;11.10;99.90
12568;DHT22;6349;50.904;6.136;2023-03-25T14:20:32;11.10;99.90
12568;DHT22;6349;50.904;6.136;2023-03-25T14:22:38;11.00;99.90
12568;DHT22;6349;50.904;6.136;2023-03-25T14:24:42;11.00;99.90
12568;DHT22;6349;50.904;6.136;2023-03-25T14:26:58;11.00;99.90
12568;DHT22;6349;50.904;6.136;2023-03-25T14:29:07;11.00;99.90
12568;DHT22;6349;50.904;6.136;2023-03-25T14:33:22;11.00;99.90
12568;DHT22;6349;50.904;6.136;2023-03-25T14:37:33;10.90;99.90
12568;DHT22;6349;50.904;6.136;2023-03-25T14:44:17;11.00;99.90
12568;DHT22;6349;50.904;6.136;2023-03-25T14:46:21;11.00;99.90
12568;DHT22;6349;50.904;6.136;2023-03-25T14:50:31;10.90;99.90
12568;DHT22;6349;50.904;6.136;2023-03-25T14:52:48;10.90;99.90
12568;DHT22;6349;50.904;6.136;2023-03-25T14:54:51;10.90;99.90
12568;DHT22;6349;50.904;6.136;2023-03-25T14:57:09;11.10;99.90
12568;DHT22;6349;50.904;6.136;2023-03-25T14:59:21;11.30;99.90
12568;DHT22;6349;50.904;6.136;2023-03-25T15:01:30;11.50;99.90
12568;DHT22;6349;50.904;6.136;2023-03-25T15:03:37;11.80;99.90
12568;DHT22;6349;50.904;6.136;2023-03-25T15:05:41;12.00;99.90
12568;DHT22;6349;50.904;6.136;2023-03-25T15:09:51;12.30;99.90
12568;DHT22;6349;50.904;6.136;2023-03-25T15:12:00;12.40;99.90
12568;DHT22;6349;50.904;6.136;2023-03-25T15:14:12;12.40;99.90
12568;DHT22;6349;50.904;6.136;2023-03-25T15:16:27;12.50;99.90
12568;DHT22;6349;50.904;6.136;2023-03-25T15:20:35;12.70;99.90
12568;DHT22;6349;50.904;6.136;2023-03-25T15:22:37;12.90;99.90
12568;DHT22;6349;50.904;6.136;2023-03-25T15:24:39;12.90;99.90
12568;DHT22;6349;50.904;6.136;2023-03-25T15:26:42;13.00;99.90
12568;DHT22;6349;50.904;6.136;2023-03-25T15:33:48;13.10;99.90
12568;DHT22;6349;50.904;6.136;2023-03-25T15:43:37;13.20;99.90
12568;DHT22;6349;50.904;6.136;2023-03-25T15:54:58;13.40;99.90
12568;DHT22;6349;50.904;6.136;2023-03-25T15:57:20;13.40;99.90
12568;DHT22;6349;50.904;6.136;2023-03-25T16:00:34;13.40;99.90
12568;DHT22;6349;50.904;6.136;2023-03-25T16:02:35;13.40;99.90
12568;DHT22;6349;50.904;6.136;2023-03-25T16:04:42;13.20;99.90
12568;DHT22;6349;50.904;6.136;2023-03-25T16:06:48;13.00;99.90
12568;DHT22;6349;50.904;6.136;2023-03-25T16:08:50;12.90;99.90
12568;DHT22;6349;50.904;6.136;2023-03-25T16:10:51;12.70;99.90
12568;DHT22;6349;50.904;6.136;2023-03-25T16:12:52;12.70;99.90
12568;DHT22;6349;50.904;6.136;2023-03-25T16:14:54;12.60;99.90
12568;DHT22;6349;50.904;6.136;2023-03-25T16:16:57;12.50;99.90